sensor_id;sensor_type;location;lat;lon;timestamp;pressure;altitude;pressure_sealevel;temperature;humidity
40372;BME280;28564;53.346;-6.554;2023-02-14T00:01:56;101830.37;;;9.45;44.43
40372;BME280;28564;53.346;-6.554;2023-02-14T00:04:23;101828.05;;;9.20;44.43
40372;BME280;28564;53.346;-6.554;2023-02-14T00:06:51;101830.82;;;9.39;44.40
40372;BME280;28564;53.346;-6.554;2023-02-14T00:09:19;101825.69;;;9.66;44.39
40372;BME280;28564;53.346;-6.554;2023-02-14T00:11:46;101823.78;;;9.41;44.43
40372;BME280;28564;53.346;-6.554;2023-02-14T00:14:15;101815.24;;;9.22;44.39
40372;BME280;28564;53.346;-6.554;2023-02-14T00:16:43;101819.06;;;9.20;44.42
40372;BME280;28564;53.346;-6.554;2023-02-14T00:19:11;101827.05;;;9.40;44.46
40372;BME280;28564;53.346;-6.554;2023-02-14T00:21:40;101823.75;;;9.63;44.51
40372;BME280;28564;53.346;-6.554;2023-02-14T00:24:09;101818.06;;;9.61;44.52
40372;BME280;28564;53.346;-6.554;2023-02-14T00:26:37;101809.49;;;9.33;44.60
40372;BME280;28564;53.346;-6.554;2023-02-14T00:29:05;101804.23;;;9.30;44.62
40372;BME280;28564;53.346;-6.554;2023-02-14T00:31:33;101806.43;;;9.05;44.68
40372;BME280;28564;53.346;-6.554;2023-02-14T00:34:01;101808.25;;;9.03;44.68
40372;BME280;28564;53.346;-6.554;2023-02-14T00:36:29;101807.43;;;9.51;44.64
40372;BME280;28564;53.346;-6.554;2023-02-14T00:38:56;101807.86;;;9.50;44.66
40372;BME280;28564;53.346;-6.554;2023-02-14T00:41:23;101810.45;;;9.26;44.67
40372;BME280;28564;53.346;-6.554;2023-02-14T00:43:52;101812.06;;;9.60;44.69
40372;BME280;28564;53.346;-6.554;2023-02-14T00:46:22;101813.79;;;9.42;44.64
40372;BME280;28564;53.346;-6.554;2023-02-14T00:48:49;101814.09;;;9.49;44.52
40372;BME280;28564;53.346;-6.554;2023-02-14T00:51:17;101813.09;;;9.30;44.42
40372;BME280;28564;53.346;-6.554;2023-02-14T00:53:46;101807.62;;;9.40;44.29
40372;BME280;28564;53.346;-6.554;2023-02-14T00:56:14;101800.79;;;9.64;44.28
40372;BME280;28564;53.346;-6.554;2023-02-14T00:58:42;101799.94;;;9.42;44.38
40372;BME280;28564;53.346;-6.554;2023-02-14T01:01:09;101791.18;;;9.45;44.35
40372;BME280;28564;53.346;-6.554;2023-02-14T01:03:36;101785.21;;;9.48;44.34
40372;BME280;28564;53.346;-6.554;2023-02-14T01:06:05;101786.47;;;9.54;44.34
40372;BME280;28564;53.346;-6.554;2023-02-14T01:08:33;101786.53;;;9.61;44.31
40372;BME280;28564;53.346;-6.554;2023-02-14T01:11:07;101787.16;;;9.66;44.18
40372;BME280;28564;53.346;-6.554;2023-02-14T01:13:34;101787.58;;;9.72;44.19
40372;BME280;28564;53.346;-6.554;2023-02-14T01:16:06;101784.69;;;9.78;44.14
40372;BME280;28564;53.346;-6.554;2023-02-14T01:18:34;101782.82;;;9.85;44.06
40372;BME280;28564;53.346;-6.554;2023-02-14T01:21:12;101784.18;;;9.87;43.92
40372;BME280;28564;53.346;-6.554;2023-02-14T01:23:39;101780.40;;;9.59;43.98
40372;BME280;28564;53.346;-6.554;2023-02-14T01:26:07;101780.77;;;9.88;43.99
40372;BME280;28564;53.346;-6.554;2023-02-14T01:28:35;101778.73;;;9.89;43.93
40372;BME280;28564;53.346;-6.554;2023-02-14T01:31:08;101777.20;;;9.65;43.96
40372;BME280;28564;53.346;-6.554;2023-02-14T01:33:36;101773.41;;;9.69;43.94
40372;BME280;28564;53.346;-6.554;2023-02-14T01:36:04;101769.85;;;10.00;43.91
40372;BME280;28564;53.346;-6.554;2023-02-14T01:38:32;101762.68;;;9.75;43.87
40372;BME280;28564;53.346;-6.554;2023-02-14T01:41:00;101759.24;;;9.76;43.82
40372;BME280;28564;53.346;-6.554;2023-02-14T01:43:27;101755.24;;;10.02;43.78
40372;BME280;28564;53.346;-6.554;2023-02-14T01:45:54;101755.47;;;9.72;43.75
40372;BME280;28564;53.346;-6.554;2023-02-14T01:48:23;101751.66;;;9.66;43.69
40372;BME280;28564;53.346;-6.554;2023-02-14T01:50:51;101751.80;;;9.51;43.70
40372;BME280;28564;53.346;-6.554;2023-02-14T01:53:23;101753.56;;;9.64;43.74
40372;BME280;28564;53.346;-6.554;2023-02-14T01:56:02;101745.31;;;9.46;43.81
40372;BME280;28564;53.346;-6.554;2023-02-14T01:58:33;101740.95;;;9.29;43.92
40372;BME280;28564;53.346;-6.554;2023-02-14T02:01:04;101733.79;;;9.63;44.02
40372;BME280;28564;53.346;-6.554;2023-02-14T02:03:33;101732.62;;;9.02;44.18
40372;BME280;28564;53.346;-6.554;2023-02-14T02:06:07;101731.95;;;9.42;44.33
40372;BME280;28564;53.346;-6.554;2023-02-14T02:08:39;101731.94;;;9.07;44.43
40372;BME280;28564;53.346;-6.554;2023-02-14T02:11:08;101733.21;;;8.76;44.59
40372;BME280;28564;53.346;-6.554;2023-02-14T02:13:35;101731.88;;;9.21;44.67
40372;BME280;28564;53.346;-6.554;2023-02-14T02:16:21;101729.10;;;8.65;44.67
40372;BME280;28564;53.346;-6.554;2023-02-14T02:19:03;101734.89;;;8.82;44.80
40372;BME280;28564;53.346;-6.554;2023-02-14T02:21:56;101725.66;;;8.83;44.98
40372;BME280;28564;53.346;-6.554;2023-02-14T02:24:38;101716.04;;;8.66;44.98
40372;BME280;28564;53.346;-6.554;2023-02-14T02:27:33;101716.34;;;8.71;45.08
40372;BME280;28564;53.346;-6.554;2023-02-14T02:32:33;101707.40;;;9.46;45.01
40372;BME280;28564;53.346;-6.554;2023-02-14T02:35:44;101715.11;;;8.80;44.77
40372;BME280;28564;53.346;-6.554;2023-02-14T02:38:26;101716.66;;;8.99;44.66
40372;BME280;28564;53.346;-6.554;2023-02-14T02:41:03;101705.89;;;8.91;44.69
40372;BME280;28564;53.346;-6.554;2023-02-14T02:43:42;101704.96;;;9.09;44.75
40372;BME280;28564;53.346;-6.554;2023-02-14T02:46:20;101692.80;;;9.01;44.94
40372;BME280;28564;53.346;-6.554;2023-02-14T02:48:56;101688.54;;;8.68;44.95
40372;BME280;28564;53.346;-6.554;2023-02-14T02:51:31;101694.10;;;8.88;45.04
40372;BME280;28564;53.346;-6.554;2023-02-14T02:54:03;101701.93;;;8.84;45.10
40372;BME280;28564;53.346;-6.554;2023-02-14T02:56:36;101705.54;;;8.80;45.16
40372;BME280;28564;53.346;-6.554;2023-02-14T02:59:08;101701.19;;;8.72;45.18
40372;BME280;28564;53.346;-6.554;2023-02-14T03:01:39;101696.17;;;8.68;45.29
40372;BME280;28564;53.346;-6.554;2023-02-14T03:04:10;101689.59;;;8.66;45.38
40372;BME280;28564;53.346;-6.554;2023-02-14T03:06:38;101687.71;;;8.62;45.51
40372;BME280;28564;53.346;-6.554;2023-02-14T03:09:11;101686.95;;;8.60;45.58
40372;BME280;28564;53.346;-6.554;2023-02-14T03:11:48;101680.67;;;8.59;45.60
40372;BME280;28564;53.346;-6.554;2023-02-14T03:14:25;101675.40;;;8.76;45.58
40372;BME280;28564;53.346;-6.554;2023-02-14T03:17:04;101677.93;;;8.52;45.59
40372;BME280;28564;53.346;-6.554;2023-02-14T03:19:43;101675.80;;;8.50;45.65
40372;BME280;28564;53.346;-6.554;2023-02-14T03:22:20;101675.52;;;8.76;45.68
40372;BME280;28564;53.346;-6.554;2023-02-14T03:24:55;101668.70;;;8.61;45.86
40372;BME280;28564;53.346;-6.554;2023-02-14T03:27:26;101660.44;;;8.96;45.83
40372;BME280;28564;53.346;-6.554;2023-02-14T03:29:58;101667.82;;;8.81;45.54
40372;BME280;28564;53.346;-6.554;2023-02-14T03:32:34;101659.51;;;8.80;45.47
40372;BME280;28564;53.346;-6.554;2023-02-14T03:35:11;101658.82;;;8.86;45.57
40372;BME280;28564;53.346;-6.554;2023-02-14T03:37:46;101646.86;;;8.88;45.33
40372;BME280;28564;53.346;-6.554;2023-02-14T03:40:19;101646.61;;;9.10;45.16
40372;BME280;28564;53.346;-6.554;2023-02-14T03:42:52;101643.70;;;8.81;45.23
40372;BME280;28564;53.346;-6.554;2023-02-14T03:45:25;101646.03;;;8.52;45.35
40372;BME280;28564;53.346;-6.554;2023-02-14T03:47:57;101651.43;;;8.57;45.36
40372;BME280;28564;53.346;-6.554;2023-02-14T03:50:27;101654.77;;;8.85;45.24
40372;BME280;28564;53.346;-6.554;2023-02-14T03:52:56;101653.23;;;8.85;45.12
40372;BME280;28564;53.346;-6.554;2023-02-14T03:55:29;101651.87;;;8.85;45.19
40372;BME280;28564;53.346;-6.554;2023-02-14T03:58:05;101655.61;;;8.92;45.26
40372;BME280;28564;53.346;-6.554;2023-02-14T04:00:36;101653.80;;;9.02;45.32
40372;BME280;28564;53.346;-6.554;2023-02-14T04:03:08;101655.08;;;9.12;45.06
40372;BME280;28564;53.346;-6.554;2023-02-14T04:05:37;101645.88;;;8.89;45.04
40372;BME280;28564;53.346;-6.554;2023-02-14T04:08:05;101650.85;;;8.70;45.04
40372;BME280;28564;53.346;-6.554;2023-02-14T04:10:32;101648.78;;;9.22;45.07
40372;BME280;28564;53.346;-6.554;2023-02-14T04:12:59;101651.55;;;8.81;45.13
40372;BME280;28564;53.346;-6.554;2023-02-14T04:15:27;101651.40;;;9.13;45.13
40372;BME280;28564;53.346;-6.554;2023-02-14T04:17:54;101643.54;;;8.99;45.07
40372;BME280;28564;53.346;-6.554;2023-02-14T04:20:21;101640.97;;;9.05;44.96
40372;BME280;28564;53.346;-6.554;2023-02-14T04:22:48;101640.71;;;9.55;45.00
40372;BME280;28564;53.346;-6.554;2023-02-14T04:25:17;101631.34;;;9.55;45.05
40372;BME280;28564;53.346;-6.554;2023-02-14T04:27:45;101634.03;;;9.30;45.11
40372;BME280;28564;53.346;-6.554;2023-02-14T04:30:13;101633.01;;;9.15;45.34
40372;BME280;28564;53.346;-6.554;2023-02-14T04:32:40;101636.26;;;9.31;45.45
40372;BME280;28564;53.346;-6.554;2023-02-14T04:35:08;101641.29;;;9.52;45.60
40372;BME280;28564;53.346;-6.554;2023-02-14T04:37:35;101636.93;;;9.73;45.52
40372;BME280;28564;53.346;-6.554;2023-02-14T04:40:03;101635.86;;;9.98;45.34
40372;BME280;28564;53.346;-6.554;2023-02-14T04:42:30;101628.91;;;9.92;45.06
40372;BME280;28564;53.346;-6.554;2023-02-14T04:44:57;101629.91;;;10.33;44.91
40372;BME280;28564;53.346;-6.554;2023-02-14T04:47:25;101629.53;;;10.01;45.02
40372;BME280;28564;53.346;-6.554;2023-02-14T04:49:52;101624.22;;;10.44;45.06
40372;BME280;28564;53.346;-6.554;2023-02-14T04:52:20;101620.76;;;10.62;45.25
40372;BME280;28564;53.346;-6.554;2023-02-14T04:54:47;101627.18;;;10.79;45.31
40372;BME280;28564;53.346;-6.554;2023-02-14T04:57:14;101623.50;;;10.52;45.50
40372;BME280;28564;53.346;-6.554;2023-02-14T04:59:42;101618.07;;;10.93;45.92
40372;BME280;28564;53.346;-6.554;2023-02-14T05:02:10;101616.33;;;11.12;46.23
40372;BME280;28564;53.346;-6.554;2023-02-14T05:04:38;101616.17;;;11.27;46.48
40372;BME280;28564;53.346;-6.554;2023-02-14T05:07:05;101623.62;;;11.38;46.86
40372;BME280;28564;53.346;-6.554;2023-02-14T05:09:33;101626.61;;;10.97;46.70
40372;BME280;28564;53.346;-6.554;2023-02-14T05:12:00;101635.40;;;11.49;46.15
40372;BME280;28564;53.346;-6.554;2023-02-14T05:14:27;101628.59;;;11.46;45.97
40372;BME280;28564;53.346;-6.554;2023-02-14T05:16:54;101626.04;;;11.45;45.95
40372;BME280;28564;53.346;-6.554;2023-02-14T05:19:21;101631.96;;;11.23;45.99
40372;BME280;28564;53.346;-6.554;2023-02-14T05:21:49;101626.44;;;11.46;46.02
40372;BME280;28564;53.346;-6.554;2023-02-14T05:24:16;101621.79;;;11.28;46.50
40372;BME280;28564;53.346;-6.554;2023-02-14T05:26:43;101613.68;;;11.41;47.23
40372;BME280;28564;53.346;-6.554;2023-02-14T05:29:11;101617.90;;;11.56;47.90
40372;BME280;28564;53.346;-6.554;2023-02-14T05:31:38;101616.35;;;11.88;47.95
40372;BME280;28564;53.346;-6.554;2023-02-14T05:34:05;101614.26;;;11.50;48.16
40372;BME280;28564;53.346;-6.554;2023-02-14T05:36:32;101615.22;;;11.61;48.30
40372;BME280;28564;53.346;-6.554;2023-02-14T05:38:59;101612.03;;;11.67;48.30
40372;BME280;28564;53.346;-6.554;2023-02-14T05:41:27;101609.94;;;11.73;48.43
40372;BME280;28564;53.346;-6.554;2023-02-14T05:43:54;101610.89;;;11.79;48.39
40372;BME280;28564;53.346;-6.554;2023-02-14T05:46:21;101608.35;;;11.89;48.62
40372;BME280;28564;53.346;-6.554;2023-02-14T05:48:49;101608.00;;;11.99;48.79
40372;BME280;28564;53.346;-6.554;2023-02-14T05:51:16;101610.15;;;12.04;48.87
40372;BME280;28564;53.346;-6.554;2023-02-14T05:53:43;101606.29;;;12.05;48.69
40372;BME280;28564;53.346;-6.554;2023-02-14T05:56:10;101605.64;;;12.07;48.71
40372;BME280;28564;53.346;-6.554;2023-02-14T05:58:38;101610.20;;;12.09;48.80
40372;BME280;28564;53.346;-6.554;2023-02-14T06:01:04;101608.25;;;12.11;49.09
40372;BME280;28564;53.346;-6.554;2023-02-14T06:03:32;101612.34;;;12.17;49.34
40372;BME280;28564;53.346;-6.554;2023-02-14T06:05:59;101615.64;;;12.20;49.27
40372;BME280;28564;53.346;-6.554;2023-02-14T06:08:26;101611.10;;;12.24;49.37
40372;BME280;28564;53.346;-6.554;2023-02-14T06:10:53;101606.05;;;12.26;49.30
40372;BME280;28564;53.346;-6.554;2023-02-14T06:13:20;101601.58;;;12.31;49.63
40372;BME280;28564;53.346;-6.554;2023-02-14T06:15:47;101600.24;;;12.34;49.67
40372;BME280;28564;53.346;-6.554;2023-02-14T06:18:14;101600.73;;;12.16;49.74
40372;BME280;28564;53.346;-6.554;2023-02-14T06:20:42;101597.78;;;12.40;49.80
40372;BME280;28564;53.346;-6.554;2023-02-14T06:23:09;101604.57;;;12.22;49.92
40372;BME280;28564;53.346;-6.554;2023-02-14T06:25:37;101605.54;;;12.29;50.27
40372;BME280;28564;53.346;-6.554;2023-02-14T06:28:04;101601.51;;;12.53;50.46
40372;BME280;28564;53.346;-6.554;2023-02-14T06:30:32;101601.95;;;12.54;50.49
40372;BME280;28564;53.346;-6.554;2023-02-14T06:33:00;101598.37;;;12.58;50.67
40372;BME280;28564;53.346;-6.554;2023-02-14T06:35:27;101602.26;;;12.64;51.04
40372;BME280;28564;53.346;-6.554;2023-02-14T06:37:54;101602.97;;;12.48;51.19
40372;BME280;28564;53.346;-6.554;2023-02-14T06:40:22;101600.55;;;12.50;51.34
40372;BME280;28564;53.346;-6.554;2023-02-14T06:42:49;101602.34;;;12.77;51.49
40372;BME280;28564;53.346;-6.554;2023-02-14T06:45:16;101601.20;;;12.53;51.65
40372;BME280;28564;53.346;-6.554;2023-02-14T06:47:44;101602.23;;;12.56;51.72
40372;BME280;28564;53.346;-6.554;2023-02-14T06:50:12;101600.09;;;12.82;51.60
40372;BME280;28564;53.346;-6.554;2023-02-14T06:52:39;101602.68;;;12.89;51.70
40372;BME280;28564;53.346;-6.554;2023-02-14T06:55:07;101602.99;;;12.96;51.78
40372;BME280;28564;53.346;-6.554;2023-02-14T06:57:34;101592.22;;;12.97;51.90
40372;BME280;28564;53.346;-6.554;2023-02-14T07:00:02;101594.87;;;12.69;52.19
40372;BME280;28564;53.346;-6.554;2023-02-14T07:02:29;101588.51;;;12.87;52.47
40372;BME280;28564;53.346;-6.554;2023-02-14T07:04:57;101591.20;;;12.82;52.59
40372;BME280;28564;53.346;-6.554;2023-02-14T07:07:24;101593.55;;;12.84;52.63
40372;BME280;28564;53.346;-6.554;2023-02-14T07:09:51;101595.94;;;12.65;52.66
40372;BME280;28564;53.346;-6.554;2023-02-14T07:12:18;101597.66;;;12.93;52.66
40372;BME280;28564;53.346;-6.554;2023-02-14T07:14:45;101596.23;;;12.96;52.65
40372;BME280;28564;53.346;-6.554;2023-02-14T07:17:12;101602.89;;;12.75;52.65
40372;BME280;28564;53.346;-6.554;2023-02-14T07:19:39;101605.84;;;12.80;52.69
40372;BME280;28564;53.346;-6.554;2023-02-14T07:22:06;101603.21;;;12.85;52.69
40372;BME280;28564;53.346;-6.554;2023-02-14T07:24:33;101597.99;;;12.82;52.75
40372;BME280;28564;53.346;-6.554;2023-02-14T07:27:00;101604.64;;;13.06;52.89
40372;BME280;28564;53.346;-6.554;2023-02-14T07:29:28;101602.95;;;12.84;53.18
40372;BME280;28564;53.346;-6.554;2023-02-14T07:31:55;101599.82;;;12.63;53.38
40372;BME280;28564;53.346;-6.554;2023-02-14T07:34:22;101605.90;;;12.90;53.49
40372;BME280;28564;53.346;-6.554;2023-02-14T07:36:50;101604.62;;;13.13;53.58
40372;BME280;28564;53.346;-6.554;2023-02-14T07:39:17;101611.93;;;12.87;53.75
40372;BME280;28564;53.346;-6.554;2023-02-14T07:41:44;101609.94;;;12.85;53.91
40372;BME280;28564;53.346;-6.554;2023-02-14T07:44:11;101610.87;;;13.12;54.07
40372;BME280;28564;53.346;-6.554;2023-02-14T07:46:38;101613.37;;;12.95;54.24
40372;BME280;28564;53.346;-6.554;2023-02-14T07:49:05;101615.85;;;12.74;54.31
40372;BME280;28564;53.346;-6.554;2023-02-14T07:51:33;101613.07;;;13.03;54.30
40372;BME280;28564;53.346;-6.554;2023-02-14T07:54:00;101617.03;;;13.09;54.26
40372;BME280;28564;53.346;-6.554;2023-02-14T07:56:27;101619.21;;;13.39;54.17
40372;BME280;28564;53.346;-6.554;2023-02-14T07:58:54;101621.74;;;12.96;54.10
40372;BME280;28564;53.346;-6.554;2023-02-14T08:01:21;101634.60;;;13.39;54.27
40372;BME280;28564;53.346;-6.554;2023-02-14T08:03:49;101645.96;;;13.44;54.23
40372;BME280;28564;53.346;-6.554;2023-02-14T08:06:17;101641.08;;;12.98;54.21
40372;BME280;28564;53.346;-6.554;2023-02-14T08:08:45;101630.52;;;13.06;54.10
40372;BME280;28564;53.346;-6.554;2023-02-14T08:11:13;101626.64;;;13.28;54.12
40372;BME280;28564;53.346;-6.554;2023-02-14T08:13:41;101623.15;;;13.07;54.18
40372;BME280;28564;53.346;-6.554;2023-02-14T08:16:08;101619.56;;;13.07;54.40
40372;BME280;28564;53.346;-6.554;2023-02-14T08:18:37;101610.67;;;13.44;54.68
40372;BME280;28564;53.346;-6.554;2023-02-14T08:21:06;101614.24;;;13.28;54.76
40372;BME280;28564;53.346;-6.554;2023-02-14T08:23:35;101619.79;;;13.25;55.01
40372;BME280;28564;53.346;-6.554;2023-02-14T08:26:03;101627.93;;;13.01;55.14
40372;BME280;28564;53.346;-6.554;2023-02-14T08:28:30;101628.21;;;13.01;55.23
40372;BME280;28564;53.346;-6.554;2023-02-14T08:30:57;101629.34;;;13.01;55.29
40372;BME280;28564;53.346;-6.554;2023-02-14T08:33:25;101630.56;;;13.31;55.26
40372;BME280;28564;53.346;-6.554;2023-02-14T08:35:52;101627.05;;;13.17;55.19
40372;BME280;28564;53.346;-6.554;2023-02-14T08:38:20;101626.12;;;13.18;55.21
40372;BME280;28564;53.346;-6.554;2023-02-14T08:40:47;101634.07;;;13.41;55.33
40372;BME280;28564;53.346;-6.554;2023-02-14T08:43:14;101629.79;;;13.27;55.22
40372;BME280;28564;53.346;-6.554;2023-02-14T08:45:42;101621.19;;;13.40;54.99
40372;BME280;28564;53.346;-6.554;2023-02-14T08:48:10;101625.93;;;13.47;54.96
40372;BME280;28564;53.346;-6.554;2023-02-14T08:50:39;101613.45;;;13.53;54.73
40372;BME280;28564;53.346;-6.554;2023-02-14T08:53:07;101613.95;;;13.59;54.47
40372;BME280;28564;53.346;-6.554;2023-02-14T08:55:36;101616.71;;;13.67;54.43
40372;BME280;28564;53.346;-6.554;2023-02-14T08:58:05;101619.47;;;13.68;54.54
40372;BME280;28564;53.346;-6.554;2023-02-14T09:00:33;101617.14;;;13.69;54.70
40372;BME280;28564;53.346;-6.554;2023-02-14T09:03:01;101623.68;;;13.72;54.86
40372;BME280;28564;53.346;-6.554;2023-02-14T09:05:29;101623.53;;;13.81;54.72
40372;BME280;28564;53.346;-6.554;2023-02-14T09:07:56;101619.17;;;13.87;54.68
40372;BME280;28564;53.346;-6.554;2023-02-14T09:10:23;101616.19;;;13.83;54.78
40372;BME280;28564;53.346;-6.554;2023-02-14T09:12:51;101614.35;;;13.85;54.73
40372;BME280;28564;53.346;-6.554;2023-02-14T09:15:18;101612.49;;;13.60;54.76
40372;BME280;28564;53.346;-6.554;2023-02-14T09:17:45;101619.54;;;14.30;54.82
40372;BME280;28564;53.346;-6.554;2023-02-14T09:20:14;101624.31;;;13.61;55.01
40372;BME280;28564;53.346;-6.554;2023-02-14T09:22:42;101626.21;;;13.68;54.90
40372;BME280;28564;53.346;-6.554;2023-02-14T09:25:10;101623.26;;;14.04;54.63
40372;BME280;28564;53.346;-6.554;2023-02-14T09:27:38;101630.74;;;13.81;54.72
40372;BME280;28564;53.346;-6.554;2023-02-14T09:30:06;101627.63;;;14.16;54.30
40372;BME280;28564;53.346;-6.554;2023-02-14T09:32:35;101633.02;;;13.88;54.32
40372;BME280;28564;53.346;-6.554;2023-02-14T09:35:02;101629.90;;;13.91;54.33
40372;BME280;28564;53.346;-6.554;2023-02-14T09:37:29;101624.71;;;13.96;54.13
40372;BME280;28564;53.346;-6.554;2023-02-14T09:39:57;101632.22;;;13.99;54.00
40372;BME280;28564;53.346;-6.554;2023-02-14T09:43:02;101641.66;;;13.80;53.86
40372;BME280;28564;53.346;-6.554;2023-02-14T09:45:32;101635.58;;;13.99;54.03
40372;BME280;28564;53.346;-6.554;2023-02-14T09:48:02;101639.43;;;13.97;54.03
40372;BME280;28564;53.346;-6.554;2023-02-14T09:50:35;101637.79;;;14.29;53.87
40372;BME280;28564;53.346;-6.554;2023-02-14T09:53:11;101633.56;;;13.84;53.58
40372;BME280;28564;53.346;-6.554;2023-02-14T09:55:45;101632.90;;;13.84;53.71
40372;BME280;28564;53.346;-6.554;2023-02-14T09:58:18;101628.43;;;14.32;53.62
40372;BME280;28564;53.346;-6.554;2023-02-14T10:00:53;101628.11;;;13.81;53.72
40372;BME280;28564;53.346;-6.554;2023-02-14T10:03:50;101631.66;;;14.04;54.11
40372;BME280;28564;53.346;-6.554;2023-02-14T10:06:34;101631.76;;;13.91;54.34
40372;BME280;28564;53.346;-6.554;2023-02-14T10:09:11;101629.99;;;14.50;54.32
40372;BME280;28564;53.346;-6.554;2023-02-14T10:11:43;101636.90;;;14.00;54.30
40372;BME280;28564;53.346;-6.554;2023-02-14T10:14:16;101640.92;;;14.24;54.22
40372;BME280;28564;53.346;-6.554;2023-02-14T10:16:47;101640.41;;;13.96;54.44
40372;BME280;28564;53.346;-6.554;2023-02-14T10:19:20;101638.26;;;13.98;54.59
40372;BME280;28564;53.346;-6.554;2023-02-14T10:21:52;101638.76;;;14.09;54.72
40372;BME280;28564;53.346;-6.554;2023-02-14T10:24:24;101626.16;;;14.17;54.65
40372;BME280;28564;53.346;-6.554;2023-02-14T10:26:57;101627.88;;;14.30;54.58
40372;BME280;28564;53.346;-6.554;2023-02-14T10:29:28;101635.84;;;14.63;54.37
40372;BME280;28564;53.346;-6.554;2023-02-14T10:31:57;101637.16;;;14.43;54.12
40372;BME280;28564;53.346;-6.554;2023-02-14T10:34:32;101635.81;;;14.36;54.50
40372;BME280;28564;53.346;-6.554;2023-02-14T10:37:21;101631.01;;;14.72;54.77
40372;BME280;28564;53.346;-6.554;2023-02-14T10:40:04;101632.07;;;14.78;54.24
40372;BME280;28564;53.346;-6.554;2023-02-14T10:42:40;101632.76;;;15.08;53.72
40372;BME280;28564;53.346;-6.554;2023-02-14T10:45:17;101628.84;;;15.02;53.69
40372;BME280;28564;53.346;-6.554;2023-02-14T10:47:54;101623.09;;;14.78;53.08
40372;BME280;28564;53.346;-6.554;2023-02-14T10:50:31;101626.42;;;15.17;53.27
40372;BME280;28564;53.346;-6.554;2023-02-14T10:53:11;101622.84;;;15.12;52.47
40372;BME280;28564;53.346;-6.554;2023-02-14T10:55:45;101622.54;;;14.97;52.39
40372;BME280;28564;53.346;-6.554;2023-02-14T10:58:15;101614.95;;;15.01;52.31
40372;BME280;28564;53.346;-6.554;2023-02-14T11:00:51;101622.55;;;15.28;52.57
40372;BME280;28564;53.346;-6.554;2023-02-14T11:03:20;101617.86;;;15.06;52.28
40372;BME280;28564;53.346;-6.554;2023-02-14T11:05:47;101619.30;;;15.14;51.93
40372;BME280;28564;53.346;-6.554;2023-02-14T11:08:23;101618.00;;;15.30;52.29
40372;BME280;28564;53.346;-6.554;2023-02-14T11:10:51;101616.64;;;15.17;52.34
40372;BME280;28564;53.346;-6.554;2023-02-14T11:13:30;101615.38;;;15.47;51.61
40372;BME280;28564;53.346;-6.554;2023-02-14T11:16:02;101620.69;;;15.63;51.00
40372;BME280;28564;53.346;-6.554;2023-02-14T11:18:32;101629.87;;;15.55;51.05
40372;BME280;28564;53.346;-6.554;2023-02-14T11:21:01;101620.66;;;15.77;51.05
40372;BME280;28564;53.346;-6.554;2023-02-14T11:23:35;101623.52;;;15.74;51.08
40372;BME280;28564;53.346;-6.554;2023-02-14T11:26:09;101627.61;;;15.49;50.92
40372;BME280;28564;53.346;-6.554;2023-02-14T11:28:48;101628.85;;;15.59;50.93
40372;BME280;28564;53.346;-6.554;2023-02-14T11:31:25;101635.27;;;15.51;51.09
40372;BME280;28564;53.346;-6.554;2023-02-14T11:33:53;101634.57;;;15.35;50.99
40372;BME280;28564;53.346;-6.554;2023-02-14T11:36:20;101631.85;;;15.47;51.15
40372;BME280;28564;53.346;-6.554;2023-02-14T11:39:04;101632.28;;;15.09;51.34
40372;BME280;28564;53.346;-6.554;2023-02-14T11:41:49;101628.73;;;14.93;51.69
40372;BME280;28564;53.346;-6.554;2023-02-14T11:44:19;101636.75;;;14.82;51.93
40372;BME280;28564;53.346;-6.554;2023-02-14T11:46:47;101639.61;;;14.83;51.98
40372;BME280;28564;53.346;-6.554;2023-02-14T11:49:25;101627.00;;;15.08;52.11
40372;BME280;28564;53.346;-6.554;2023-02-14T11:51:52;101617.35;;;15.29;52.08
40372;BME280;28564;53.346;-6.554;2023-02-14T11:54:28;101617.58;;;15.43;52.28
40372;BME280;28564;53.346;-6.554;2023-02-14T11:57:01;101615.00;;;15.57;51.95
40372;BME280;28564;53.346;-6.554;2023-02-14T11:59:32;101607.92;;;15.46;51.59
40372;BME280;28564;53.346;-6.554;2023-02-14T12:02:10;101604.57;;;15.73;51.41
40372;BME280;28564;53.346;-6.554;2023-02-14T12:04:43;101597.11;;;15.90;50.89
40372;BME280;28564;53.346;-6.554;2023-02-14T12:07:16;101590.41;;;16.05;50.81
40372;BME280;28564;53.346;-6.554;2023-02-14T12:09:45;101581.98;;;15.65;50.29
40372;BME280;28564;53.346;-6.554;2023-02-14T12:12:17;101584.54;;;15.93;50.23
40372;BME280;28564;53.346;-6.554;2023-02-14T12:14:44;101574.28;;;15.74;49.76
40372;BME280;28564;53.346;-6.554;2023-02-14T12:17:22;101572.19;;;16.27;50.17
40372;BME280;28564;53.346;-6.554;2023-02-14T12:19:57;101567.30;;;16.22;49.81
40372;BME280;28564;53.346;-6.554;2023-02-14T12:22:28;101565.31;;;16.12;49.58
40372;BME280;28564;53.346;-6.554;2023-02-14T12:25:02;101566.84;;;16.33;48.98
40372;BME280;28564;53.346;-6.554;2023-02-14T12:27:38;101560.74;;;16.48;48.60
40372;BME280;28564;53.346;-6.554;2023-02-14T12:30:13;101561.56;;;16.60;47.95
40372;BME280;28564;53.346;-6.554;2023-02-14T12:32:46;101556.45;;;16.73;47.71
40372;BME280;28564;53.346;-6.554;2023-02-14T12:35:15;101548.40;;;16.81;47.48
40372;BME280;28564;53.346;-6.554;2023-02-14T12:37:53;101546.70;;;16.94;47.25
40372;BME280;28564;53.346;-6.554;2023-02-14T12:40:32;101543.50;;;16.79;47.32
40372;BME280;28564;53.346;-6.554;2023-02-14T12:43:14;101535.94;;;16.94;47.15
40372;BME280;28564;53.346;-6.554;2023-02-14T12:46:00;101525.84;;;17.07;46.62
40372;BME280;28564;53.346;-6.554;2023-02-14T12:48:41;101525.94;;;17.06;46.10
40372;BME280;28564;53.346;-6.554;2023-02-14T12:51:16;101525.11;;;17.57;45.20
40372;BME280;28564;53.346;-6.554;2023-02-14T12:53:56;101527.22;;;18.16;44.63
40372;BME280;28564;53.346;-6.554;2023-02-14T12:56:34;101521.35;;;18.58;43.43
40372;BME280;28564;53.346;-6.554;2023-02-14T12:59:07;101522.71;;;19.00;41.70
40372;BME280;28564;53.346;-6.554;2023-02-14T13:01:55;101522.29;;;19.43;40.82
40372;BME280;28564;53.346;-6.554;2023-02-14T13:04:36;101516.85;;;19.55;39.66